Talos — 9HA4371 — position and weather

sailwx.info

Track history (hours):
 
Tides and Currents Weather Stations Pressure Air Temp Water Temp Dewpoint Dewpoint Depression Visibility Wind Speed Wind Dir Waves Ship Positions

Talos

Last reported at 2018-Apr-23 07:33 UTC. Time now 2018-Apr-24 16:42 UTC.
Position N 01°32' E 104°35'.

Length 369 m; draft 13.5 m.

Type: Cargo ship. MMSI: 249769000.

Date/timePositionNaut miles runAvg speedWind from/ knotsBaromVisibWave heightAir tempDewpointWater temp
2018-Apr-23 07:33N 01°32' E 104°35'420.5
2018-Apr-23 07:21N 01°28' E 104°34'820.3
2018-Apr-23 06:58N 01°23' E 104°28'1019.9
2018-Apr-23 06:28N 01°18' E 104°20'1020.2
2018-Apr-23 05:59N 01°16' E 104°10'1019.9
2018-Apr-23 05:30N 01°14' E 104°01'1018.5
2018-Apr-23 04:59N 01°11' E 103°51'4 8.7
2018-Apr-23 04:29N 01°13' E 103°47'3 5.2
2018-Apr-23 03:59N 01°16' E 103°48'0 0.0
2018-Apr-23 03:29N 01°16' E 103°48'0 0.0
2018-Apr-23 02:59N 01°16' E 103°48'0 0.0
2018-Apr-23 02:30N 01°16' E 103°48'0 0.0
2018-Apr-23 01:59N 01°16' E 103°48'0 0.0
2018-Apr-23 01:29N 01°16' E 103°48'0 0.0
2018-Apr-23 00:59N 01°16' E 103°48'0 0.0
2018-Apr-23 00:29N 01°16' E 103°48'0 0.0
2018-Apr-22 23:56N 01°16' E 103°48'0 0.0
2018-Apr-22 23:14N 01°16' E 103°48'0 0.1
2018-Apr-22 22:56N 01°16' E 103°48'0 0.1
2018-Apr-22 22:29N 01°16' E 103°48'0 0.0
2018-Apr-22 21:58N 01°16' E 103°48'0 0.1
2018-Apr-22 21:28N 01°16' E 103°48'0 0.0
2018-Apr-22 20:58N 01°16' E 103°48'0 0.0
2018-Apr-22 20:28N 01°16' E 103°48'0 0.1
2018-Apr-22 19:58N 01°16' E 103°48'0 0.1
2018-Apr-22 19:25N 01°16' E 103°48'0 0.0
2018-Apr-22 18:58N 01°16' E 103°48'0 0.0
2018-Apr-22 18:28N 01°16' E 103°48'0 0.0
2018-Apr-22 17:58N 01°16' E 103°48'0 0.0
2018-Apr-22 17:28N 01°16' E 103°48'0 0.0
2018-Apr-22 16:55N 01°16' E 103°48'0 0.0
2018-Apr-22 16:28N 01°16' E 103°48'0 0.0
2018-Apr-22 15:58N 01°16' E 103°48'0 0.0
2018-Apr-22 15:28N 01°16' E 103°48'0 0.0
2018-Apr-22 14:58N 01°16' E 103°48'0 0.0
2018-Apr-22 14:28N 01°16' E 103°48'0 0.0
2018-Apr-22 13:55N 01°16' E 103°48'0 0.0
2018-Apr-22 13:28N 01°16' E 103°48'0 0.0
2018-Apr-22 12:58N 01°16' E 103°48'0 0.0
2018-Apr-22 12:28N 01°16' E 103°48'0 0.0
2018-Apr-22 11:58N 01°16' E 103°48'0 0.0
2018-Apr-22 11:28N 01°16' E 103°48'0 0.0
2018-Apr-22 10:55N 01°16' E 103°48'0 0.0
2018-Apr-22 10:28N 01°16' E 103°48'0 0.0
2018-Apr-22 09:58N 01°16' E 103°48'0 0.0
2018-Apr-22 09:30N 01°16' E 103°48'1 1.1
2018-Apr-22 08:59N 01°15' E 103°47'1 1.4
2018-Apr-22 08:30N 01°15' E 103°47'1 1.5
2018-Apr-22 08:00N 01°15' E 103°46'1 2.1
2018-Apr-22 07:30N 01°15' E 103°45'2 4.2
2018-Apr-22 07:00N 01°14' E 103°43'4 8.4
2018-Apr-22 06:30N 01°12' E 103°39'4 8.4
2018-Apr-22 06:00N 01°12' E 103°35'3 6.6
2018-Apr-22 05:30N 01°11' E 103°32'2 3.2
2018-Apr-22 04:56N 01°11' E 103°30'0 0.3
2018-Apr-22 04:30N 01°11' E 103°30'0 0.6
2018-Apr-22 03:58N 01°11' E 103°30'1 1.8
2018-Apr-22 03:30N 01°11' E 103°31'1 1.3
2018-Apr-22 03:00N 01°10' E 103°31'0 0.8
2018-Apr-22 02:30N 01°10' E 103°31'0 0.7
2018-Apr-22 02:00N 01°11' E 103°31'1 1.1
2018-Apr-22 01:30N 01°10' E 103°30'0 0.8
2018-Apr-22 00:57N 01°10' E 103°30'1 1.7
2018-Apr-22 00:30N 01°10' E 103°30'1 1.3
2018-Apr-21 23:59N 01°10' E 103°31'0 1.0
2018-Apr-21 23:30N 01°10' E 103°31'0 0.6
2018-Apr-21 22:59N 01°10' E 103°31'0 0.4
2018-Apr-21 22:29N 01°10' E 103°31'0 0.3
2018-Apr-21 21:59N 01°10' E 103°31'0 0.2
2018-Apr-21 21:30N 01°10' E 103°31'0 0.7
2018-Apr-21 20:59N 01°10' E 103°31'0 0.7
2018-Apr-21 20:30N 01°10' E 103°31'0 0.2
2018-Apr-21 19:59N 01°10' E 103°31'0 0.4
2018-Apr-21 19:30N 01°10' E 103°31'0 0.4
2018-Apr-21 19:01N 01°10' E 103°31'0 0.3
2018-Apr-21 18:30N 01°10' E 103°31'0 0.4
2018-Apr-21 17:59N 01°11' E 103°31'2 4.8
2018-Apr-21 17:30N 01°13' E 103°31'3 5.7
2018-Apr-21 16:59N 01°15' E 103°32'5 9.7
2018-Apr-21 16:30N 01°20' E 103°33'1 0.6
2018-Apr-21 14:52N 01°21' E 103°33'0 0.0
2018-Apr-21 14:25N 01°21' E 103°33'0 0.0
2018-Apr-21 13:40N 01°21' E 103°33'0 0.0
2018-Apr-21 13:25N 01°21' E 103°33'0 0.0
2018-Apr-21 12:46N 01°21' E 103°33'0 0.0
2018-Apr-21 12:28N 01°21' E 103°33'0 0.0
2018-Apr-21 11:55N 01°21' E 103°33'0 0.0
2018-Apr-21 11:25N 01°21' E 103°33'0 0.0
2018-Apr-21 10:43N 01°21' E 103°33'0 0.0
2018-Apr-21 10:22N 01°21' E 103°33'0 0.0
2018-Apr-21 09:58N 01°21' E 103°33'0 0.0
2018-Apr-21 09:22N 01°21' E 103°33'0 0.0
2018-Apr-21 08:13N 01°21' E 103°33'0 0.0
2018-Apr-21 07:07N 01°21' E 103°33'0 0.0
2018-Apr-21 06:58N 01°21' E 103°33'0 0.0
2018-Apr-21 06:25N 01°21' E 103°33'0 0.1
2018-Apr-21 05:52N 01°21' E 103°33'0 0.1
2018-Apr-21 05:19N 01°21' E 103°33'0 0.0
2018-Apr-21 04:52N 01°21' E 103°33'0 0.0
2018-Apr-21 04:10N 01°21' E 103°33'0 0.0
2018-Apr-21 03:37N 01°21' E 103°33'0 0.1
2018-Apr-21 03:28N 01°21' E 103°33'0 0.0
2018-Apr-21 02:58N 01°21' E 103°33'0 0.0
2018-Apr-21 02:19N 01°21' E 103°33'0 0.0
2018-Apr-21 01:40N 01°21' E 103°33'0 0.0
2018-Apr-21 01:25N 01°21' E 103°33'0 0.1
2018-Apr-21 00:58N 01°21' E 103°33'0 0.1
2018-Apr-21 00:13N 01°21' E 103°33'0 0.0
2018-Apr-20 23:53N 01°21' E 103°33'0 0.2
2018-Apr-20 23:30N 01°21' E 103°33'2 3.7
2018-Apr-20 23:00N 01°19' E 103°33'510.3
2018-Apr-20 22:30N 01°14' E 103°32'5 8.6
2018-Apr-20 21:59N 01°11' E 103°29'4 7.8
2018-Apr-20 21:30N 01°12' E 103°25'714.0
2018-Apr-20 20:59N 01°16' E 103°20'917.4
2018-Apr-20 20:27N 01°22' E 103°13'  
2018-Apr-14 16:05N 13°20' E 056°34'221.3
2018-Apr-14 16:01N 13°21' E 056°33'  
Track history (hours):
 
Tides and Currents Weather Stations Pressure Air Temp Water Temp Dewpoint Dewpoint Depression Visibility Wind Speed Wind Dir Waves Ship Positions

Talos

Last reported at 2018-Apr-23 07:33 UTC. Time now 2018-Apr-24 16:42 UTC.
Position N 01°32' E 104°35'.

Length 369 m; draft 13.5 m.

Type: Cargo ship. MMSI: 249769000.

Date/timePositionNaut miles runAvg speedWind from/ knotsBaromVisibWave heightAir tempDewpointWater temp
2018-Apr-23 07:33N 01°32' E 104°35'420.5
2018-Apr-23 07:21N 01°28' E 104°34'820.3
2018-Apr-23 06:58N 01°23' E 104°28'1019.9
2018-Apr-23 06:28N 01°18' E 104°20'1020.2
2018-Apr-23 05:59N 01°16' E 104°10'1019.9
2018-Apr-23 05:30N 01°14' E 104°01'1018.5
2018-Apr-23 04:59N 01°11' E 103°51'4 8.7
2018-Apr-23 04:29N 01°13' E 103°47'3 5.2
2018-Apr-23 03:59N 01°16' E 103°48'0 0.0
2018-Apr-23 03:29N 01°16' E 103°48'0 0.0
2018-Apr-23 02:59N 01°16' E 103°48'0 0.0
2018-Apr-23 02:30N 01°16' E 103°48'0 0.0
2018-Apr-23 01:59N 01°16' E 103°48'0 0.0
2018-Apr-23 01:29N 01°16' E 103°48'0 0.0
2018-Apr-23 00:59N 01°16' E 103°48'0 0.0
2018-Apr-23 00:29N 01°16' E 103°48'0 0.0
2018-Apr-22 23:56N 01°16' E 103°48'0 0.0
2018-Apr-22 23:14N 01°16' E 103°48'0 0.1
2018-Apr-22 22:56N 01°16' E 103°48'0 0.1
2018-Apr-22 22:29N 01°16' E 103°48'0 0.0
2018-Apr-22 21:58N 01°16' E 103°48'0 0.1
2018-Apr-22 21:28N 01°16' E 103°48'0 0.0
2018-Apr-22 20:58N 01°16' E 103°48'0 0.0
2018-Apr-22 20:28N 01°16' E 103°48'0 0.1
2018-Apr-22 19:58N 01°16' E 103°48'0 0.1
2018-Apr-22 19:25N 01°16' E 103°48'0 0.0
2018-Apr-22 18:58N 01°16' E 103°48'0 0.0
2018-Apr-22 18:28N 01°16' E 103°48'0 0.0
2018-Apr-22 17:58N 01°16' E 103°48'0 0.0
2018-Apr-22 17:28N 01°16' E 103°48'0 0.0
2018-Apr-22 16:55N 01°16' E 103°48'0 0.0
2018-Apr-22 16:28N 01°16' E 103°48'0 0.0
2018-Apr-22 15:58N 01°16' E 103°48'0 0.0
2018-Apr-22 15:28N 01°16' E 103°48'0 0.0
2018-Apr-22 14:58N 01°16' E 103°48'0 0.0
2018-Apr-22 14:28N 01°16' E 103°48'0 0.0
2018-Apr-22 13:55N 01°16' E 103°48'0 0.0
2018-Apr-22 13:28N 01°16' E 103°48'0 0.0
2018-Apr-22 12:58N 01°16' E 103°48'0 0.0
2018-Apr-22 12:28N 01°16' E 103°48'0 0.0
2018-Apr-22 11:58N 01°16' E 103°48'0 0.0
2018-Apr-22 11:28N 01°16' E 103°48'0 0.0
2018-Apr-22 10:55N 01°16' E 103°48'0 0.0
2018-Apr-22 10:28N 01°16' E 103°48'0 0.0
2018-Apr-22 09:58N 01°16' E 103°48'0 0.0
2018-Apr-22 09:30N 01°16' E 103°48'1 1.1
2018-Apr-22 08:59N 01°15' E 103°47'1 1.4
2018-Apr-22 08:30N 01°15' E 103°47'1 1.5
2018-Apr-22 08:00N 01°15' E 103°46'1 2.1
2018-Apr-22 07:30N 01°15' E 103°45'2 4.2
2018-Apr-22 07:00N 01°14' E 103°43'4 8.4
2018-Apr-22 06:30N 01°12' E 103°39'4 8.4
2018-Apr-22 06:00N 01°12' E 103°35'3 6.6
2018-Apr-22 05:30N 01°11' E 103°32'2 3.2
2018-Apr-22 04:56N 01°11' E 103°30'0 0.3
2018-Apr-22 04:30N 01°11' E 103°30'0 0.6
2018-Apr-22 03:58N 01°11' E 103°30'1 1.8
2018-Apr-22 03:30N 01°11' E 103°31'1 1.3
2018-Apr-22 03:00N 01°10' E 103°31'0 0.8
2018-Apr-22 02:30N 01°10' E 103°31'0 0.7
2018-Apr-22 02:00N 01°11' E 103°31'1 1.1
2018-Apr-22 01:30N 01°10' E 103°30'0 0.8
2018-Apr-22 00:57N 01°10' E 103°30'1 1.7
2018-Apr-22 00:30N 01°10' E 103°30'1 1.3
2018-Apr-21 23:59N 01°10' E 103°31'0 1.0
2018-Apr-21 23:30N 01°10' E 103°31'0 0.6
2018-Apr-21 22:59N 01°10' E 103°31'0 0.4
2018-Apr-21 22:29N 01°10' E 103°31'0 0.3
2018-Apr-21 21:59N 01°10' E 103°31'0 0.2
2018-Apr-21 21:30N 01°10' E 103°31'0 0.7
2018-Apr-21 20:59N 01°10' E 103°31'0 0.7
2018-Apr-21 20:30N 01°10' E 103°31'0 0.2
2018-Apr-21 19:59N 01°10' E 103°31'0 0.4
2018-Apr-21 19:30N 01°10' E 103°31'0 0.4
2018-Apr-21 19:01N 01°10' E 103°31'0 0.3
2018-Apr-21 18:30N 01°10' E 103°31'0 0.4
2018-Apr-21 17:59N 01°11' E 103°31'2 4.8
2018-Apr-21 17:30N 01°13' E 103°31'3 5.7
2018-Apr-21 16:59N 01°15' E 103°32'5 9.7
2018-Apr-21 16:30N 01°20' E 103°33'1 0.6
2018-Apr-21 14:52N 01°21' E 103°33'0 0.0
2018-Apr-21 14:25N 01°21' E 103°33'0 0.0
2018-Apr-21 13:40N 01°21' E 103°33'0 0.0
2018-Apr-21 13:25N 01°21' E 103°33'0 0.0
2018-Apr-21 12:46N 01°21' E 103°33'0 0.0
2018-Apr-21 12:28N 01°21' E 103°33'0 0.0
2018-Apr-21 11:55N 01°21' E 103°33'0 0.0
2018-Apr-21 11:25N 01°21' E 103°33'0 0.0
2018-Apr-21 10:43N 01°21' E 103°33'0 0.0
2018-Apr-21 10:22N 01°21' E 103°33'0 0.0
2018-Apr-21 09:58N 01°21' E 103°33'0 0.0
2018-Apr-21 09:22N 01°21' E 103°33'0 0.0
2018-Apr-21 08:13N 01°21' E 103°33'0 0.0
2018-Apr-21 07:07N 01°21' E 103°33'0 0.0
2018-Apr-21 06:58N 01°21' E 103°33'0 0.0
2018-Apr-21 06:25N 01°21' E 103°33'0 0.1
2018-Apr-21 05:52N 01°21' E 103°33'0 0.1
2018-Apr-21 05:19N 01°21' E 103°33'0 0.0
2018-Apr-21 04:52N 01°21' E 103°33'0 0.0
2018-Apr-21 04:10N 01°21' E 103°33'0 0.0
2018-Apr-21 03:37N 01°21' E 103°33'0 0.1
2018-Apr-21 03:28N 01°21' E 103°33'0 0.0
2018-Apr-21 02:58N 01°21' E 103°33'0 0.0
2018-Apr-21 02:19N 01°21' E 103°33'0 0.0
2018-Apr-21 01:40N 01°21' E 103°33'0 0.0
2018-Apr-21 01:25N 01°21' E 103°33'0 0.1
2018-Apr-21 00:58N 01°21' E 103°33'0 0.1
2018-Apr-21 00:13N 01°21' E 103°33'0 0.0
2018-Apr-20 23:53N 01°21' E 103°33'0 0.2
2018-Apr-20 23:30N 01°21' E 103°33'2 3.7
2018-Apr-20 23:00N 01°19' E 103°33'510.3
2018-Apr-20 22:30N 01°14' E 103°32'5 8.6
2018-Apr-20 21:59N 01°11' E 103°29'4 7.8
2018-Apr-20 21:30N 01°12' E 103°25'714.0
2018-Apr-20 20:59N 01°16' E 103°20'917.4
2018-Apr-20 20:27N 01°22' E 103°13'  
2018-Apr-14 16:05N 13°20' E 056°34'221.3
2018-Apr-14 16:01N 13°21' E 056°33'  

Dump ship's entire track history